Time;durP1;ratioP1;P1;durP2;ratioP2;P2;SDS_P1;SDS_P2;PMS_P1;PMS_P2;Temp;Humidity;BMP_temperature;BMP_pressure;BME280_temperature;BME280_humidity;BME280_pressure;Samples;Min_cycle;Max_cycle;Signal;HPM_P1;HPM_P2
2022/06/09 00:01:28;;;;;;;1.98;1.52;;;12.90;31.30;;;;;;5130228;27;35377;-79
2022/06/09 00:04:04;;;;;;;7.55;1.77;;;12.80;31.40;;;;;;5099054;27;34045;-80
2022/06/09 00:06:36;;;;;;;1.30;1.20;;;12.90;31.50;;;;;;5111946;27;34330;-80
2022/06/09 00:09:04;;;;;;;3.42;1.50;;;12.80;31.60;;;;;;5095216;27;34160;-79
2022/06/09 00:11:34;;;;;;;2.10;1.35;;;12.90;31.60;;;;;;5111569;27;34422;-79
2022/06/09 00:14:00;;;;;;;4.97;1.52;;;12.90;31.70;;;;;;5094729;27;34311;-80
2022/06/09 00:16:26;;;;;;;4.30;1.48;;;12.90;31.60;;;;;;5112524;27;33738;-79
2022/06/09 00:18:52;;;;;;;2.20;1.10;;;12.90;31.50;;;;;;5098550;27;34133;-80
2022/06/09 00:21:18;;;;;;;1.45;1.05;;;12.90;31.50;;;;;;5085481;28;35869;-80
2022/06/09 00:23:44;;;;;;;1.35;1.10;;;12.90;31.40;;;;;;5096698;27;34097;-79
2022/06/09 00:26:10;;;;;;;2.97;1.23;;;12.80;31.20;;;;;;5100192;27;34382;-79
2022/06/09 00:28:36;;;;;;;0.88;0.82;;;12.80;31.20;;;;;;5129166;27;34449;-79
2022/06/09 00:31:02;;;;;;;4.50;1.13;;;12.80;31.20;;;;;;5101245;27;35606;-79
2022/06/09 00:33:28;;;;;;;1.85;1.13;;;12.80;31.20;;;;;;5074893;28;34249;-80
2022/06/09 00:35:54;;;;;;;1.77;1.23;;;12.80;31.10;;;;;;5114148;28;34134;-80
2022/06/09 00:38:20;;;;;;;1.88;0.80;;;12.70;31.10;;;;;;5095038;28;34557;-80
2022/06/09 00:40:46;;;;;;;2.13;1.17;;;12.70;31.30;;;;;;5093966;28;35586;-80
2022/06/09 00:43:12;;;;;;;1.83;1.30;;;12.70;31.20;;;;;;5112479;28;34275;-80
2022/06/09 00:45:42;;;;;;;4.05;1.15;;;12.60;31.10;;;;;;5095603;28;34360;-79
2022/06/09 00:48:33;;;;;;;1.65;1.13;;;12.60;31.20;;;;;;5131527;27;34002;-80
2022/06/09 00:51:09;;;;;;;2.28;1.45;;;12.60;31.60;;;;;;5109303;27;36810;-79
2022/06/09 00:53:37;;;;;;;1.30;1.10;;;12.50;31.30;;;;;;5097741;27;34473;-80
2022/06/09 00:56:04;;;;;;;3.97;1.50;;;12.50;31.30;;;;;;5112757;27;34365;-80
2022/06/09 00:58:35;;;;;;;1.65;1.40;;;12.50;31.30;;;;;;5110804;28;34191;-80
2022/06/09 01:01:06;;;;;;;2.35;1.27;;;12.40;31.20;;;;;;5076582;28;36088;-79
2022/06/09 01:03:42;;;;;;;2.22;1.20;;;12.40;31.20;;;;;;5112489;27;34212;-80
2022/06/09 01:06:13;;;;;;;2.05;1.30;;;12.40;31.40;;;;;;5093264;28;34011;-79
2022/06/09 01:08:48;;;;;;;4.78;1.38;;;12.30;31.30;;;;;;5099476;27;34022;-80
2022/06/09 01:11:14;;;;;;;1.38;1.27;;;12.30;31.40;;;;;;5112721;27;35837;-79
2022/06/09 01:13:40;;;;;;;4.65;1.60;;;12.30;31.50;;;;;;5093387;28;33696;-80
2022/06/09 01:16:19;;;;;;;2.67;1.17;;;12.30;31.90;;;;;;5092823;27;34215;-79
2022/06/09 01:19:20;;;;;;;3.33;1.02;;;12.30;31.80;;;;;;5080598;27;34178;-80
2022/06/09 01:22:10;;;;;;;1.70;1.20;;;12.40;32.30;;;;;;5096215;28;35604;-80
2022/06/09 01:24:59;;;;;;;4.53;1.60;;;12.30;32.00;;;;;;5075783;28;34295;-79
2022/06/09 01:27:54;;;;;;;3.45;1.52;;;12.30;31.70;;;;;;5091793;28;34275;-80
2022/06/09 01:30:42;;;;;;;3.40;1.13;;;12.30;31.80;;;;;;5102581;27;34425;-79
2022/06/09 01:33:21;;;;;;;1.67;1.08;;;12.20;31.40;;;;;;5095048;28;35478;-79
2022/06/09 01:36:07;;;;;;;2.65;1.15;;;12.20;31.60;;;;;;5074901;27;34228;-79
2022/06/09 01:38:50;;;;;;;2.05;1.38;;;12.20;31.50;;;;;;5108998;28;34338;-79
2022/06/09 01:41:17;;;;;;;4.43;1.17;;;12.20;31.80;;;;;;5093848;27;34343;-79
2022/06/09 01:43:46;;;;;;;1.55;1.45;;;12.20;31.60;;;;;;5093968;27;36754;-79
2022/06/09 01:46:34;;;;;;;5.07;1.55;;;12.20;32.10;;;;;;5107836;27;34146;-78
2022/06/09 01:49:07;;;;;;;2.30;1.42;;;12.30;32.60;;;;;;5091742;28;34280;-79
2022/06/09 01:51:36;;;;;;;3.08;1.42;;;12.30;32.40;;;;;;5106700;27;34188;-79
2022/06/09 01:54:07;;;;;;;2.95;1.80;;;12.40;32.30;;;;;;5085913;28;35966;-79
2022/06/09 01:56:43;;;;;;;3.47;1.40;;;12.50;32.50;;;;;;5105575;28;34146;-79
2022/06/09 01:59:16;;;;;;;6.28;1.92;;;12.50;32.30;;;;;;5093586;28;34315;-79
2022/06/09 02:01:48;;;;;;;5.88;1.73;;;12.60;32.30;;;;;;5080395;27;34340;-79
2022/06/09 02:04:22;;;;;;;4.13;1.40;;;12.60;32.20;;;;;;5111325;27;36526;-79
2022/06/09 02:06:50;;;;;;;4.70;1.50;;;12.70;32.10;;;;;;5113235;27;34286;-80
2022/06/09 02:09:16;;;;;;;4.63;1.52;;;12.80;32.00;;;;;;5112467;27;34283;-81
2022/06/09 02:11:50;;;;;;;3.35;1.30;;;12.80;32.00;;;;;;5089812;28;34164;-79
2022/06/09 02:14:17;;;;;;;3.05;1.38;;;12.80;32.00;;;;;;5074061;28;35845;-80
2022/06/09 02:16:43;;;;;;;1.90;1.20;;;12.90;31.90;;;;;;5092754;27;34192;-79
2022/06/09 02:19:09;;;;;;;1.33;1.00;;;12.90;32.00;;;;;;5076745;27;34283;-79
2022/06/09 02:21:37;;;;;;;3.47;1.30;;;13.00;32.00;;;;;;5092956;27;34374;-80
2022/06/09 02:24:03;;;;;;;2.42;1.33;;;13.00;31.90;;;;;;5090623;28;35730;-79
2022/06/09 02:26:30;;;;;;;3.60;1.20;;;13.00;32.00;;;;;;5109223;27;34229;-79
2022/06/09 02:28:56;;;;;;;5.68;1.30;;;13.10;32.00;;;;;;5101776;27;34444;-79
2022/06/09 02:31:23;;;;;;;2.90;1.35;;;13.10;32.00;;;;;;5075718;27;34161;-79
2022/06/09 02:33:50;;;;;;;2.55;1.40;;;13.10;32.00;;;;;;5101269;28;36052;-79
2022/06/09 02:36:17;;;;;;;2.15;1.30;;;13.10;31.90;;;;;;5090595;28;34145;-79
2022/06/09 02:38:43;;;;;;;2.92;1.13;;;13.20;31.90;;;;;;5074987;28;34019;-79
2022/06/09 02:41:09;;;;;;;7.43;1.52;;;13.20;31.90;;;;;;5101528;27;34132;-79
2022/06/09 02:43:35;;;;;;;3.00;1.40;;;13.20;31.90;;;;;;5093886;27;36237;-79
2022/06/09 02:46:03;;;;;;;4.13;1.45;;;13.20;31.90;;;;;;5129327;27;34018;-79
2022/06/09 02:48:29;;;;;;;7.60;1.20;;;13.30;32.00;;;;;;5103254;28;34141;-79
2022/06/09 02:50:55;;;;;;;4.30;1.08;;;13.20;31.90;;;;;;5090307;28;34418;-79
2022/06/09 02:53:23;;;;;;;1.88;1.13;;;13.30;31.90;;;;;;5088709;28;35775;-79
2022/06/09 02:55:49;;;;;;;3.20;1.25;;;13.30;31.90;;;;;;5089740;28;34077;-79
2022/06/09 02:58:16;;;;;;;3.47;1.05;;;13.30;32.00;;;;;;5098340;27;34133;-79
2022/06/09 03:00:42;;;;;;;1.35;1.17;;;13.30;32.00;;;;;;5110814;27;34467;-79
2022/06/09 03:03:12;;;;;;;4.03;1.30;;;13.40;32.10;;;;;;5091316;27;36470;-79
2022/06/09 03:05:39;;;;;;;1.67;0.90;;;13.30;32.00;;;;;;5110353;27;34038;-79
2022/06/09 03:08:07;;;;;;;1.90;1.17;;;13.40;31.90;;;;;;5117616;27;34260;-80
2022/06/09 03:10:34;;;;;;;3.58;1.20;;;13.40;31.90;;;;;;5109414;27;34035;-80
2022/06/09 03:13:00;;;;;;;5.07;1.50;;;13.40;31.90;;;;;;5109262;27;35746;-80
2022/06/09 03:15:26;;;;;;;2.58;1.05;;;13.40;31.80;;;;;;5097025;28;34369;-79
2022/06/09 03:17:52;;;;;;;1.65;0.80;;;13.40;31.80;;;;;;5074470;28;34087;-79
2022/06/09 03:20:22;;;;;;;1.90;1.10;;;13.40;31.80;;;;;;5090504;28;34296;-79
2022/06/09 03:22:48;;;;;;;5.55;1.30;;;13.40;31.80;;;;;;5090338;27;35608;-79
2022/06/09 03:25:14;;;;;;;5.90;1.33;;;13.40;31.80;;;;;;5109024;28;34014;-79
2022/06/09 03:27:40;;;;;;;2.80;0.85;;;13.40;31.80;;;;;;5091751;28;34276;-79
2022/06/09 03:30:08;;;;;;;4.32;1.08;;;13.40;31.70;;;;;;5108708;28;34057;-80
2022/06/09 03:32:34;;;;;;;5.82;1.27;;;13.40;31.80;;;;;;5091431;28;35926;-80
2022/06/09 03:35:00;;;;;;;3.33;1.33;;;13.50;31.80;;;;;;5094059;28;34132;-79
2022/06/09 03:37:25;;;;;;;2.33;1.13;;;13.40;31.60;;;;;;5111070;28;33972;-80
2022/06/09 03:39:51;;;;;;;4.25;1.30;;;13.40;31.70;;;;;;5109765;28;34204;-79
2022/06/09 03:42:18;;;;;;;5.45;1.17;;;13.50;31.70;;;;;;5107482;28;35915;-79
2022/06/09 03:44:44;;;;;;;3.20;1.20;;;13.50;31.70;;;;;;5093626;27;34256;-79
2022/06/09 03:47:11;;;;;;;4.07;1.20;;;13.50;31.70;;;;;;5077444;27;34351;-80
2022/06/09 03:49:38;;;;;;;4.03;1.20;;;13.50;31.80;;;;;;5090407;28;34660;-79
2022/06/09 03:52:04;;;;;;;5.45;1.13;;;13.50;31.80;;;;;;5074559;28;36542;-79
2022/06/09 03:54:30;;;;;;;3.75;1.17;;;13.50;31.60;;;;;;5102386;27;33729;-79
2022/06/09 03:56:56;;;;;;;3.17;1.30;;;13.60;31.60;;;;;;5125246;27;34089;-79
2022/06/09 03:59:23;;;;;;;4.28;1.23;;;13.50;31.50;;;;;;5107115;27;34269;-79
2022/06/09 04:01:49;;;;;;;2.20;0.93;;;13.60;31.50;;;;;;5124780;27;35304;-80
2022/06/09 04:04:15;;;;;;;3.17;1.10;;;13.60;31.70;;;;;;5110420;28;34129;-79
2022/06/09 04:06:42;;;;;;;3.70;1.08;;;13.60;31.50;;;;;;5113265;27;34269;-79
2022/06/09 04:09:08;;;;;;;5.03;1.33;;;13.60;31.50;;;;;;5114700;27;34147;-79
2022/06/09 04:11:34;;;;;;;3.40;1.38;;;13.70;31.60;;;;;;5110467;28;36651;-79
2022/06/09 04:14:00;;;;;;;4.22;1.30;;;13.70;31.40;;;;;;5113977;27;34105;-79
2022/06/09 04:16:32;;;;;;;2.42;1.30;;;13.70;31.40;;;;;;5094964;28;34054;-80
2022/06/09 04:19:00;;;;;;;3.83;1.10;;;13.80;31.40;;;;;;5082253;28;34486;-79
2022/06/09 04:21:27;;;;;;;4.72;1.20;;;13.80;31.30;;;;;;5096438;28;34354;-80
2022/06/09 04:23:54;;;;;;;4.72;1.20;;;13.80;31.10;;;;;;5094776;27;34123;-80
2022/06/09 04:26:23;;;;;;;2.70;1.20;;;13.80;31.20;;;;;;5133109;27;34163;-80
2022/06/09 04:28:49;;;;;;;4.72;1.20;;;13.80;31.30;;;;;;5112558;27;34047;-79
2022/06/09 04:31:15;;;;;;;1.65;0.90;;;13.80;31.30;;;;;;5114738;27;35658;-79
2022/06/09 04:33:42;;;;;;;7.43;1.48;;;13.80;31.30;;;;;;5113792;27;34201;-79
2022/06/09 04:36:10;;;;;;;4.53;1.23;;;13.90;31.40;;;;;;5099100;28;33676;-80
2022/06/09 04:38:36;;;;;;;7.95;1.52;;;13.90;31.40;;;;;;5059740;28;34537;-79
2022/06/09 04:41:09;;;;;;;5.50;1.45;;;13.90;31.40;;;;;;5092263;28;35626;-80
2022/06/09 04:43:37;;;;;;;4.65;1.30;;;13.90;31.20;;;;;;5094920;28;33728;-80
2022/06/09 04:46:04;;;;;;;5.40;1.33;;;14.00;31.20;;;;;;5092544;28;34121;-79
2022/06/09 04:48:31;;;;;;;4.57;1.40;;;14.00;31.10;;;;;;5091276;27;34139;-79
2022/06/09 04:50:57;;;;;;;7.07;1.70;;;14.10;31.30;;;;;;5132395;27;34137;-79
2022/06/09 04:53:23;;;;;;;2.85;1.20;;;14.10;31.10;;;;;;5081499;28;34407;-79
2022/06/09 04:55:49;;;;;;;5.68;1.70;;;14.10;31.10;;;;;;5111941;27;34230;-80
2022/06/09 04:58:16;;;;;;;3.90;1.50;;;14.20;31.10;;;;;;5113763;27;34441;-79
2022/06/09 05:00:42;;;;;;;4.70;1.42;;;14.20;30.80;;;;;;5114376;27;36305;-79
2022/06/09 05:03:11;;;;;;;8.02;1.73;;;14.30;30.90;;;;;;5080493;28;34214;-80
2022/06/09 05:05:42;;;;;;;3.88;1.20;;;14.30;30.80;;;;;;5094226;28;34355;-80
2022/06/09 05:08:08;;;;;;;5.68;1.30;;;14.30;30.80;;;;;;5107833;27;34549;-80
2022/06/09 05:10:34;;;;;;;6.22;1.33;;;14.30;30.80;;;;;;5109175;27;35517;-80
2022/06/09 05:13:01;;;;;;;7.78;1.52;;;14.30;30.80;;;;;;5112161;27;34116;-79
2022/06/09 05:15:27;;;;;;;9.27;1.40;;;14.20;30.80;;;;;;5115194;27;34037;-80
2022/06/09 05:17:57;;;;;;;7.45;1.35;;;14.20;30.80;;;;;;5125516;27;34060;-79
2022/06/09 05:20:24;;;;;;;6.68;1.73;;;14.20;30.90;;;;;;5110278;27;36006;-78
2022/06/09 05:22:50;;;;;;;3.70;1.25;;;14.20;30.90;;;;;;5130485;27;33715;-78
2022/06/09 05:25:16;;;;;;;6.15;1.40;;;14.20;31.00;;;;;;5129306;27;34043;-79
2022/06/09 05:27:42;;;;;;;7.53;1.75;;;14.20;30.90;;;;;;5126080;27;34152;-79
2022/06/09 05:30:12;;;;;;;4.75;1.35;;;14.30;30.90;;;;;;5095539;27;36127;-79
2022/06/09 05:32:38;;;;;;;6.30;1.60;;;14.40;30.70;;;;;;5080615;27;34145;-80
2022/06/09 05:35:05;;;;;;;6.82;1.60;;;14.50;30.60;;;;;;5109172;27;34315;-79
2022/06/09 05:44:50;;;;;;;3.33;1.10;;;14.70;30.40;;;;;;5110108;27;34186;-80
2022/06/09 05:45:44;;;;;;;5.55;1.20;;;15.60;29.30;;;;;;5112708;27;34219;-81
2022/06/09 05:48:10;;;;;;;4.22;1.30;;;15.90;28.70;;;;;;5115371;27;34389;-78
2022/06/09 05:50:37;;;;;;;6.03;1.40;;;16.00;28.30;;;;;;5099937;27;35918;-83
2022/06/09 05:53:03;;;;;;;4.00;1.55;;;16.10;28.10;;;;;;5099393;27;34224;-82
2022/06/09 05:55:29;;;;;;;1.35;1.08;;;16.20;27.80;;;;;;5103874;27;34309;-82
2022/06/09 05:57:55;;;;;;;1.83;1.13;;;16.20;27.90;;;;;;5133861;27;34495;-77
2022/06/09 06:00:21;;;;;;;2.05;1.08;;;16.10;27.90;;;;;;5096962;27;35672;-82
2022/06/09 06:02:47;;;;;;;5.07;1.13;;;16.00;28.10;;;;;;5100026;27;34460;-82
2022/06/09 06:07:54;;;;;;;6.00;1.50;;;16.00;28.50;;;;;;5119229;27;34352;-78
2022/06/09 06:10:20;;;;;;;6.55;1.40;;;16.00;28.40;;;;;;5111171;27;35909;-80
2022/06/09 06:12:46;;;;;;;5.88;1.10;;;16.10;28.50;;;;;;5080280;27;34448;-80
2022/06/09 06:15:12;;;;;;;10.48;1.42;;;16.10;28.50;;;;;;5115838;27;34439;-81
2022/06/09 06:17:38;;;;;;;2.42;1.27;;;16.20;28.30;;;;;;5133265;27;34144;-80
2022/06/09 06:20:04;;;;;;;6.60;1.60;;;16.30;28.30;;;;;;5115492;27;34076;-82
2022/06/09 06:22:30;;;;;;;5.05;1.55;;;16.30;28.10;;;;;;5088912;27;33857;-80
2022/06/09 06:24:59;;;;;;;6.15;1.45;;;16.40;28.20;;;;;;5114603;27;34381;-80
2022/06/09 06:27:26;;;;;;;1.50;1.00;;;16.50;28.00;;;;;;5108124;28;34506;-78
2022/06/09 06:29:52;;;;;;;6.55;1.90;;;16.50;27.90;;;;;;5108239;27;34351;-79
2022/06/09 06:32:18;;;;;;;4.82;1.65;;;16.50;27.90;;;;;;5087838;28;34137;-78
2022/06/09 06:34:44;;;;;;;9.32;1.88;;;16.50;27.90;;;;;;5067016;28;34236;-78
2022/06/09 06:37:09;;;;;;;4.63;1.67;;;16.50;27.80;;;;;;5071532;27;34109;-79
2022/06/09 06:39:35;;;;;;;5.15;1.45;;;16.50;27.90;;;;;;5088785;28;35591;-78
2022/06/09 06:42:01;;;;;;;5.47;1.52;;;16.50;27.80;;;;;;5109356;27;34150;-78
2022/06/09 06:44:27;;;;;;;2.72;1.40;;;16.50;27.90;;;;;;5090362;27;34130;-77
2022/06/09 06:46:53;;;;;;;7.15;1.60;;;16.50;27.90;;;;;;5075127;27;34219;-80
2022/06/09 06:49:19;;;;;;;6.63;1.35;;;16.50;28.00;;;;;;5092456;27;36561;-78
2022/06/09 06:51:45;;;;;;;5.68;1.40;;;16.50;27.90;;;;;;5108159;27;34367;-78
2022/06/09 06:54:11;;;;;;;4.70;1.70;;;16.50;28.10;;;;;;5087772;28;34418;-76
2022/06/09 06:56:37;;;;;;;8.40;1.67;;;16.60;28.10;;;;;;5089100;27;34591;-78
2022/06/09 06:59:04;;;;;;;3.72;1.27;;;16.60;27.90;;;;;;5091225;27;36018;-76
2022/06/09 07:01:30;;;;;;;3.70;1.77;;;16.70;28.80;;;;;;5088533;27;34160;-77
2022/06/09 07:03:57;;;;;;;9.55;1.77;;;16.80;28.00;;;;;;5108000;27;33698;-78
2022/06/09 07:06:23;;;;;;;3.75;1.42;;;16.90;27.70;;;;;;5106881;27;34144;-76
2022/06/09 07:08:49;;;;;;;3.65;1.60;;;17.10;27.50;;;;;;5106394;27;36393;-76
2022/06/09 07:11:15;;;;;;;7.53;1.58;;;17.10;27.30;;;;;;5107010;27;34353;-76
2022/06/09 07:13:42;;;;;;;5.45;1.52;;;17.20;27.10;;;;;;5125188;27;34235;-77
2022/06/09 07:16:09;;;;;;;4.68;1.63;;;17.20;26.70;;;;;;5107491;27;34254;-76
2022/06/09 07:18:37;;;;;;;9.57;1.73;;;17.20;26.40;;;;;;5090336;27;35521;-78
2022/06/09 07:21:04;;;;;;;7.45;1.45;;;17.20;26.50;;;;;;5125036;27;34110;-76
2022/06/09 07:23:31;;;;;;;8.50;1.60;;;17.10;26.50;;;;;;5107527;27;34575;-76
2022/06/09 07:25:58;;;;;;;4.32;1.48;;;17.20;26.50;;;;;;5106647;27;34482;-77
2022/06/09 07:28:25;;;;;;;5.07;1.30;;;17.30;26.50;;;;;;5086429;28;35666;-78
2022/06/09 07:30:56;;;;;;;7.22;1.77;;;17.30;26.30;;;;;;5086552;28;34150;-76
2022/06/09 07:33:24;;;;;;;4.70;1.40;;;17.40;26.30;;;;;;5104104;27;34272;-77
2022/06/09 07:35:53;;;;;;;9.85;1.67;;;17.50;26.50;;;;;;5107149;27;34122;-76
2022/06/09 07:38:20;;;;;;;5.60;1.67;;;17.70;26.20;;;;;;5108318;27;34214;-79
2022/06/09 07:40:46;;;;;;;4.50;1.17;;;17.80;25.70;;;;;;5110211;27;34440;-77
2022/06/09 07:43:12;;;;;;;5.28;1.33;;;17.80;25.40;;;;;;5077073;27;34334;-77
2022/06/09 07:45:40;;;;;;;3.63;1.05;;;17.90;25.10;;;;;;5092895;27;34113;-75
2022/06/09 07:48:07;;;;;;;5.05;1.15;;;17.90;24.60;;;;;;5109941;27;35576;-76
2022/06/09 07:50:52;;;;;;;7.10;1.40;;;18.00;24.50;;;;;;5111687;27;34016;-78
2022/06/09 07:53:19;;;;;;;3.22;1.50;;;18.30;21.50;;;;;;5106160;27;34100;-76
2022/06/09 07:55:46;;;;;;;4.90;1.30;;;18.40;23.70;;;;;;5119662;27;34486;-77
2022/06/09 07:58:13;;;;;;;6.85;1.30;;;18.50;23.40;;;;;;5129019;27;35199;-77
2022/06/09 08:00:40;;;;;;;9.43;1.58;;;18.60;23.50;;;;;;5109689;27;34190;-75
2022/06/09 08:03:07;;;;;;;3.50;1.23;;;18.60;23.20;;;;;;5110424;27;34630;-76
2022/06/09 08:05:34;;;;;;;7.20;1.50;;;18.70;23.00;;;;;;5109769;27;33992;-76
2022/06/09 08:08:00;;;;;;;3.20;1.50;;;18.80;22.60;;;;;;5128008;27;35122;-78
2022/06/09 08:10:28;;;;;;;10.98;1.70;;;19.00;22.50;;;;;;5111432;27;34492;-80
2022/06/09 08:12:59;;;;;;;4.35;1.48;;;19.10;21.70;;;;;;5111398;27;34185;-77
2022/06/09 08:15:27;;;;;;;5.03;1.30;;;19.20;19.80;;;;;;5112178;27;34149;-80
2022/06/09 08:17:55;;;;;;;7.03;1.40;;;19.20;21.60;;;;;;5093722;27;35565;-76
2022/06/09 08:20:23;;;;;;;3.60;1.20;;;19.20;21.60;;;;;;5112420;27;34328;-78
2022/06/09 08:22:49;;;;;;;5.95;1.30;;;19.20;20.60;;;;;;5095492;27;34304;-77
2022/06/09 08:25:17;;;;;;;1.77;0.82;;;19.10;20.20;;;;;;5112654;27;34678;-75
2022/06/09 08:27:43;;;;;;;4.88;1.33;;;19.10;21.00;;;;;;5093841;27;36066;-78
2022/06/09 08:30:12;;;;;;;4.53;1.17;;;19.30;21.20;;;;;;5112143;27;34138;-77
2022/06/09 08:32:38;;;;;;;5.63;1.50;;;19.30;20.10;;;;;;5110752;27;34072;-76
2022/06/09 08:35:07;;;;;;;5.40;1.50;;;19.40;21.00;;;;;;5111138;27;34557;-77
2022/06/09 08:37:33;;;;;;;2.78;1.27;;;19.30;20.80;;;;;;5110318;27;35614;-76
2022/06/09 08:39:59;;;;;;;5.45;1.10;;;19.30;20.80;;;;;;5108927;28;34111;-76
2022/06/09 08:42:44;;;;;;;3.83;1.38;;;19.50;20.40;;;;;;5112592;27;34154;-76
2022/06/09 08:45:15;;;;;;;5.15;1.40;;;19.60;19.00;;;;;;5096788;27;34093;-77
2022/06/09 08:47:48;;;;;;;5.18;1.40;;;19.80;20.00;;;;;;5091374;28;36336;-79
2022/06/09 08:50:29;;;;;;;7.05;1.30;;;19.90;18.20;;;;;;5111813;27;34258;-78
2022/06/09 08:53:15;;;;;;;2.90;1.15;;;19.90;17.70;;;;;;5076426;27;34074;-77
2022/06/09 08:55:52;;;;;;;3.67;1.30;;;19.90;18.00;;;;;;5109702;27;33993;-76
2022/06/09 08:58:39;;;;;;;4.32;1.30;;;20.20;18.00;;;;;;5108295;28;34344;-78
2022/06/09 09:01:24;;;;;;;3.42;1.33;;;20.20;14.10;;;;;;5097810;27;34772;-77
2022/06/09 09:03:59;;;;;;;3.22;1.30;;;20.40;17.40;;;;;;5081065;27;34500;-79
2022/06/09 09:06:49;;;;;;;4.32;1.30;;;20.60;17.90;;;;;;5112487;27;34234;-78
2022/06/09 09:09:22;;;;;;;5.72;1.38;;;20.80;16.30;;;;;;5129831;27;35221;-80
2022/06/09 09:12:01;;;;;;;5.88;1.52;;;20.80;16.20;;;;;;5106086;28;34541;-76
2022/06/09 09:14:36;;;;;;;5.00;1.40;;;20.80;15.80;;;;;;5106859;28;34151;-80
2022/06/09 09:17:31;;;;;;;5.63;1.38;;;20.70;16.40;;;;;;5106527;28;34100;-75
2022/06/09 09:20:18;;;;;;;4.50;1.27;;;20.50;15.40;;;;;;5091794;28;35815;-77
2022/06/09 09:23:02;;;;;;;3.30;1.02;;;20.40;14.70;;;;;;5090215;28;34593;-75
2022/06/09 09:25:47;;;;;;;5.18;1.42;;;20.20;17.60;;;;;;5116043;27;34113;-77
2022/06/09 09:28:22;;;;;;;3.95;1.17;;;20.20;17.30;;;;;;5113084;27;34437;-77
2022/06/09 09:31:02;;;;;;;3.83;1.23;;;20.10;17.20;;;;;;5128040;27;34125;-77
2022/06/09 09:33:30;;;;;;;4.32;1.10;;;20.10;15.10;;;;;;5092117;27;34415;-75
2022/06/09 09:36:05;;;;;;;2.10;1.25;;;20.10;18.00;;;;;;5076841;27;34196;-79
2022/06/09 09:38:39;;;;;;;3.33;1.25;;;20.20;16.70;;;;;;5083634;27;34397;-77
2022/06/09 09:41:05;;;;;;;6.82;1.38;;;20.20;15.80;;;;;;5092558;27;36493;-76
2022/06/09 09:43:39;;;;;;;2.65;1.05;;;20.10;17.80;;;;;;5109096;27;34142;-77
2022/06/09 09:46:25;;;;;;;4.38;1.17;;;20.20;16.50;;;;;;5100969;27;34272;-76
2022/06/09 09:48:51;;;;;;;5.65;1.20;;;20.30;15.10;;;;;;5128402;27;34024;-77
2022/06/09 09:51:33;;;;;;;1.45;0.90;;;20.30;17.50;;;;;;5111196;27;36316;-78
2022/06/09 09:54:09;;;;;;;4.47;1.15;;;20.50;14.60;;;;;;5092231;28;34254;-79
2022/06/09 09:56:37;;;;;;;2.97;0.85;;;20.70;13.60;;;;;;5106485;28;34519;-77
2022/06/09 09:59:25;;;;;;;2.95;0.93;;;20.90;16.30;;;;;;5110881;27;34374;-77
2022/06/09 10:10:14;;;;;;;2.25;0.80;;;21.90;11.60;;;;;;5113220;27;34210;-76
2022/06/09 10:12:40;;;;;;;3.25;1.30;;;22.00;10.40;;;;;;5113400;27;34201;-75
2022/06/09 10:15:18;;;;;;;4.75;1.20;;;22.10;14.20;;;;;;5089221;28;34379;-77
2022/06/09 10:18:02;;;;;;;2.58;0.93;;;22.40;10.50;;;;;;5098004;27;34245;-78
2022/06/09 10:20:34;;;;;;;3.35;0.98;;;22.60;9.20;;;;;;5110961;27;34377;-81
2022/06/09 10:23:33;;;;;;;3.47;1.10;;;22.60;11.60;;;;;;5109781;27;36183;-77
2022/06/09 10:26:10;;;;;;;3.15;0.98;;;22.40;9.20;;;;;;5098683;27;34310;-77
2022/06/09 10:28:55;;;;;;;4.78;1.00;;;22.00;9.70;;;;;;5073156;27;34075;-76
2022/06/09 10:31:40;;;;;;;5.43;1.30;;;21.80;10.00;;;;;;5110236;27;34199;-78
2022/06/09 10:34:31;;;;;;;1.85;0.85;;;21.50;9.60;;;;;;5089941;28;35811;-78
2022/06/09 10:37:04;;;;;;;5.22;0.93;;;21.20;12.70;;;;;;5097337;27;34129;-79
2022/06/09 10:39:39;;;;;;;3.42;1.00;;;20.90;12.10;;;;;;5127354;27;34210;-77
2022/06/09 10:42:21;;;;;;;3.25;1.00;;;20.80;11.70;;;;;;5090723;27;34641;-76
2022/06/09 10:44:52;;;;;;;3.42;1.20;;;20.60;12.50;;;;;;5093274;27;35531;-78
2022/06/09 10:56:43;;;;;;;3.20;1.08;;;20.10;12.40;;;;;;5126434;27;34736;-77
2022/06/09 10:59:20;;;;;;;3.25;0.95;;;20.10;12.10;;;;;;5127649;27;33951;-77
2022/06/09 11:01:46;;;;;;;3.35;1.17;;;20.20;11.90;;;;;;5108616;27;34328;-76
2022/06/09 11:04:15;;;;;;;3.15;0.93;;;20.30;14.30;;;;;;5074143;27;34078;-77
2022/06/09 11:07:11;;;;;;;3.97;1.00;;;20.40;13.70;;;;;;5107932;27;35812;-78
2022/06/09 11:09:53;;;;;;;3.85;1.17;;;20.60;13.10;;;;;;5093433;27;34244;-76
2022/06/09 11:12:34;;;;;;;4.45;1.00;;;20.90;12.10;;;;;;5108579;27;34104;-75
2022/06/09 11:15:16;;;;;;;6.00;0.98;;;21.10;11.50;;;;;;5108000;27;34088;-76
2022/06/09 11:18:12;;;;;;;5.28;1.08;;;21.40;9.20;;;;;;5091337;27;35973;-77
2022/06/09 11:20:59;;;;;;;5.53;1.05;;;21.70;9.20;;;;;;5092861;27;34379;-78
2022/06/09 11:24:00;;;;;;;7.40;1.17;;;21.90;7.60;;;;;;5096110;27;34313;-76
2022/06/09 11:26:40;;;;;;;5.70;0.95;;;22.00;8.90;;;;;;5116760;27;34276;-76
2022/06/09 11:29:37;;;;;;;4.80;1.20;;;22.20;10.10;;;;;;5119782;27;34500;-76
2022/06/09 11:32:18;;;;;;;4.35;0.80;;;22.50;9.70;;;;;;5109867;27;34150;-76
2022/06/09 11:34:58;;;;;;;2.08;0.90;;;22.70;8.50;;;;;;5109967;27;34591;-77
2022/06/09 11:37:54;;;;;;;2.20;1.08;;;22.80;7.90;;;;;;5089016;28;34134;-78
2022/06/09 11:40:44;;;;;;;5.45;0.63;;;22.80;1.00;;;;;;5104150;27;36668;-77
2022/06/09 11:43:22;;;;;;;5.10;1.10;;;22.60;4.70;;;;;;5098076;27;34295;-76
2022/06/09 11:45:55;;;;;;;5.40;1.10;;;22.40;7.30;;;;;;5092250;27;34121;-77
2022/06/09 11:48:28;;;;;;;5.93;1.27;;;22.40;7.80;;;;;;5126450;27;34318;-78
2022/06/09 11:50:55;;;;;;;2.30;0.80;;;22.30;8.40;;;;;;5087237;28;35833;-77
2022/06/09 11:53:25;;;;;;;2.55;1.00;;;22.30;9.90;;;;;;5082022;28;34127;-76
2022/06/09 11:56:12;;;;;;;1.58;0.93;;;22.30;9.20;;;;;;5101710;27;34235;-76
2022/06/09 11:58:44;;;;;;;6.35;1.30;;;22.20;10.10;;;;;;5078237;27;34587;-76
2022/06/09 12:01:33;;;;;;;1.75;0.80;;;22.20;9.60;;;;;;5106402;27;36110;-77
2022/06/09 12:04:20;;;;;;;3.15;0.77;;;22.10;6.90;;;;;;5099622;27;33702;-78
2022/06/09 12:07:17;;;;;;;3.88;1.20;;;22.10;8.60;;;;;;5082631;27;34114;-78
2022/06/09 12:10:02;;;;;;;4.07;0.85;;;22.00;6.70;;;;;;5125279;27;34410;-76
2022/06/09 12:12:36;;;;;;;3.22;1.13;;;22.00;8.60;;;;;;5085695;28;35802;-75
2022/06/09 12:15:20;;;;;;;2.22;0.90;;;22.00;8.80;;;;;;5119236;27;34157;-76
2022/06/09 12:18:06;;;;;;;2.85;0.90;;;22.00;8.10;;;;;;5107174;27;34408;-76
2022/06/09 12:20:41;;;;;;;3.92;1.00;;;22.00;6.70;;;;;;5106812;27;34570;-76
2022/06/09 12:23:26;;;;;;;2.78;1.08;;;22.00;9.20;;;;;;5106746;27;35536;-77
2022/06/09 12:26:32;;;;;;;4.70;1.13;;;22.20;7.10;;;;;;5105340;27;34299;-78
2022/06/09 12:29:15;;;;;;;2.15;1.00;;;22.30;7.30;;;;;;5084532;27;34343;-76
2022/06/09 12:32:22;;;;;;;2.15;1.15;;;22.70;8.60;;;;;;5075649;28;34513;-75
2022/06/09 12:34:51;;;;;;;2.17;1.08;;;23.20;6.00;;;;;;5082090;28;34446;-77
2022/06/09 12:37:34;;;;;;;2.60;0.88;;;23.70;8.40;;;;;;5086725;27;34398;-76
2022/06/09 12:40:06;;;;;;;4.80;1.30;;;24.20;3.80;;;;;;5112127;27;34326;-75
2022/06/09 12:42:59;;;;;;;3.95;0.80;;;24.40;5.90;;;;;;5091202;27;34276;-78
2022/06/09 12:45:30;;;;;;;2.63;0.80;;;24.70;2.60;;;;;;5096664;28;36618;-77
2022/06/09 12:48:03;;;;;;;2.25;0.95;;;24.60;5.90;;;;;;5108502;28;34157;-76
2022/06/09 12:50:49;;;;;;;3.85;0.90;;;24.60;5.30;;;;;;5108186;28;34382;-79
2022/06/09 12:53:21;;;;;;;0.90;0.70;;;24.80;3.80;;;;;;5107561;27;34228;-75
2022/06/09 12:55:53;;;;;;;2.63;0.68;;;25.00;3.60;;;;;;5108274;28;34165;-77
2022/06/09 12:58:24;;;;;;;1.73;0.70;;;25.20;2.20;;;;;;5089780;28;34305;-77
2022/06/09 13:00:57;;;;;;;1.58;0.80;;;25.40;3.70;;;;;;5100480;27;34233;-76
2022/06/09 13:03:29;;;;;;;3.40;0.80;;;25.70;1.00;;;;;;5128664;27;34619;-76
2022/06/09 13:05:55;;;;;;;1.55;0.90;;;25.90;1.40;;;;;;5095545;27;35658;-76
2022/06/09 13:08:25;;;;;;;2.85;0.90;;;25.90;1.60;;;;;;5090625;28;34235;-77
2022/06/09 13:11:03;;;;;;;2.10;0.70;;;25.80;1.00;;;;;;5093067;27;34336;-76
2022/06/09 13:13:55;;;;;;;5.05;1.00;;;25.80;1.00;;;;;;5108671;27;34483;-76
2022/06/09 13:16:24;;;;;;;0.68;0.65;;;25.90;1.00;;;;;;5109952;27;35665;-77
2022/06/09 13:18:58;;;;;;;2.13;0.73;;;25.90;1.00;;;;;;5092632;27;34323;-76
2022/06/09 13:21:31;;;;;;;4.55;0.90;;;25.90;1.00;;;;;;5109384;27;34297;-75
2022/06/09 13:23:59;;;;;;;3.28;0.90;;;25.90;1.00;;;;;;5107848;27;34211;-75
2022/06/09 13:26:31;;;;;;;5.45;0.80;;;25.60;1.00;;;;;;5115728;27;34240;-76
2022/06/09 13:29:00;;;;;;;3.28;0.75;;;25.50;1.00;;;;;;5105789;27;34068;-77
2022/06/09 13:31:36;;;;;;;2.15;0.80;;;25.50;1.00;;;;;;5110155;27;34293;-76
2022/06/09 13:34:23;;;;;;;3.70;0.90;;;25.50;1.00;;;;;;5078521;27;34508;-76
2022/06/09 13:37:09;;;;;;;1.25;0.47;;;25.60;1.00;;;;;;5128417;27;34625;-79
2022/06/09 13:39:43;;;;;;;2.45;0.80;;;25.70;1.00;;;;;;5089815;28;34366;-77